sensor_id;sensor_type;location;lat;lon;timestamp;temperature;humidity
2973;DHT22;1496;51.404;7.232;2024-02-26T00:02:17;5.70;1.00
2973;DHT22;1496;51.404;7.232;2024-02-26T00:04:43;5.70;1.00
2973;DHT22;1496;51.404;7.232;2024-02-26T00:07:09;5.70;1.00
2973;DHT22;1496;51.404;7.232;2024-02-26T00:09:34;5.70;1.00
2973;DHT22;1496;51.404;7.232;2024-02-26T00:12:05;5.70;1.00
2973;DHT22;1496;51.404;7.232;2024-02-26T00:14:33;5.70;1.00
2973;DHT22;1496;51.404;7.232;2024-02-26T00:16:59;5.70;1.00
2973;DHT22;1496;51.404;7.232;2024-02-26T00:19:25;5.70;1.00
2973;DHT22;1496;51.404;7.232;2024-02-26T00:21:51;5.70;1.00
2973;DHT22;1496;51.404;7.232;2024-02-26T00:24:19;5.70;1.00
2973;DHT22;1496;51.404;7.232;2024-02-26T00:26:44;5.70;1.00
2973;DHT22;1496;51.404;7.232;2024-02-26T00:29:10;5.70;1.00
2973;DHT22;1496;51.404;7.232;2024-02-26T00:31:36;5.60;1.00
2973;DHT22;1496;51.404;7.232;2024-02-26T00:34:03;5.60;1.00
2973;DHT22;1496;51.404;7.232;2024-02-26T00:36:29;5.70;1.00
2973;DHT22;1496;51.404;7.232;2024-02-26T00:38:55;5.60;1.00
2973;DHT22;1496;51.404;7.232;2024-02-26T00:41:21;5.60;1.00
2973;DHT22;1496;51.404;7.232;2024-02-26T00:43:47;5.70;1.00
2973;DHT22;1496;51.404;7.232;2024-02-26T00:46:12;5.70;1.00
2973;DHT22;1496;51.404;7.232;2024-02-26T00:48:38;5.70;1.00
2973;DHT22;1496;51.404;7.232;2024-02-26T00:51:05;5.70;1.00
2973;DHT22;1496;51.404;7.232;2024-02-26T00:53:31;5.70;1.00
2973;DHT22;1496;51.404;7.232;2024-02-26T00:55:57;5.70;1.00
2973;DHT22;1496;51.404;7.232;2024-02-26T00:58:24;5.60;1.00
2973;DHT22;1496;51.404;7.232;2024-02-26T01:00:50;5.60;1.00
2973;DHT22;1496;51.404;7.232;2024-02-26T01:03:17;5.60;1.00
2973;DHT22;1496;51.404;7.232;2024-02-26T01:05:42;5.60;1.00
2973;DHT22;1496;51.404;7.232;2024-02-26T01:08:09;5.60;1.00
2973;DHT22;1496;51.404;7.232;2024-02-26T01:10:34;5.60;1.00
2973;DHT22;1496;51.404;7.232;2024-02-26T01:13:01;5.60;1.00
2973;DHT22;1496;51.404;7.232;2024-02-26T01:15:26;5.60;1.00
2973;DHT22;1496;51.404;7.232;2024-02-26T01:17:52;5.60;1.00
2973;DHT22;1496;51.404;7.232;2024-02-26T01:20:18;5.60;1.00
2973;DHT22;1496;51.404;7.232;2024-02-26T01:22:45;5.60;1.00
2973;DHT22;1496;51.404;7.232;2024-02-26T01:25:10;5.60;1.00
2973;DHT22;1496;51.404;7.232;2024-02-26T01:27:36;5.60;1.00
2973;DHT22;1496;51.404;7.232;2024-02-26T01:30:03;5.70;1.00
2973;DHT22;1496;51.404;7.232;2024-02-26T01:32:29;5.70;1.00
2973;DHT22;1496;51.404;7.232;2024-02-26T01:34:56;5.60;1.00
2973;DHT22;1496;51.404;7.232;2024-02-26T01:37:22;5.60;1.00
2973;DHT22;1496;51.404;7.232;2024-02-26T01:39:48;5.60;1.00
2973;DHT22;1496;51.404;7.232;2024-02-26T01:42:13;5.60;1.00
2973;DHT22;1496;51.404;7.232;2024-02-26T01:44:39;5.60;1.00
2973;DHT22;1496;51.404;7.232;2024-02-26T01:47:10;5.60;1.00
2973;DHT22;1496;51.404;7.232;2024-02-26T01:49:36;5.60;1.00
2973;DHT22;1496;51.404;7.232;2024-02-26T01:52:06;5.60;1.00
2973;DHT22;1496;51.404;7.232;2024-02-26T01:54:35;5.50;1.00
2973;DHT22;1496;51.404;7.232;2024-02-26T01:57:03;5.50;1.00
2973;DHT22;1496;51.404;7.232;2024-02-26T01:59:29;5.60;1.00
2973;DHT22;1496;51.404;7.232;2024-02-26T02:01:57;5.60;1.00
2973;DHT22;1496;51.404;7.232;2024-02-26T02:04:24;5.60;1.00
2973;DHT22;1496;51.404;7.232;2024-02-26T02:06:50;5.60;1.00
2973;DHT22;1496;51.404;7.232;2024-02-26T02:09:18;5.60;1.00
2973;DHT22;1496;51.404;7.232;2024-02-26T02:11:44;5.60;1.00
2973;DHT22;1496;51.404;7.232;2024-02-26T02:14:10;5.60;1.00
2973;DHT22;1496;51.404;7.232;2024-02-26T02:16:36;5.60;1.00
2973;DHT22;1496;51.404;7.232;2024-02-26T02:19:01;5.60;1.00
2973;DHT22;1496;51.404;7.232;2024-02-26T02:21:27;5.60;1.00
2973;DHT22;1496;51.404;7.232;2024-02-26T02:23:53;5.60;1.00
2973;DHT22;1496;51.404;7.232;2024-02-26T02:26:19;5.60;1.00
2973;DHT22;1496;51.404;7.232;2024-02-26T02:28:46;5.60;1.00
2973;DHT22;1496;51.404;7.232;2024-02-26T02:31:12;5.60;1.00
2973;DHT22;1496;51.404;7.232;2024-02-26T02:33:38;5.50;1.00
2973;DHT22;1496;51.404;7.232;2024-02-26T02:36:04;5.60;1.00
2973;DHT22;1496;51.404;7.232;2024-02-26T02:38:30;5.60;1.00
2973;DHT22;1496;51.404;7.232;2024-02-26T02:40:57;5.60;1.00
2973;DHT22;1496;51.404;7.232;2024-02-26T02:43:22;5.60;1.00
2973;DHT22;1496;51.404;7.232;2024-02-26T02:45:48;5.60;1.00
2973;DHT22;1496;51.404;7.232;2024-02-26T02:48:14;5.60;1.00
2973;DHT22;1496;51.404;7.232;2024-02-26T02:50:39;5.60;1.00
2973;DHT22;1496;51.404;7.232;2024-02-26T02:53:05;5.60;1.00
2973;DHT22;1496;51.404;7.232;2024-02-26T02:55:31;5.60;1.00
2973;DHT22;1496;51.404;7.232;2024-02-26T02:57:56;5.50;1.00
2973;DHT22;1496;51.404;7.232;2024-02-26T03:00:22;5.50;1.00
2973;DHT22;1496;51.404;7.232;2024-02-26T03:02:50;5.50;1.00
2973;DHT22;1496;51.404;7.232;2024-02-26T03:05:16;5.50;1.00
2973;DHT22;1496;51.404;7.232;2024-02-26T03:07:42;5.60;1.00
2973;DHT22;1496;51.404;7.232;2024-02-26T03:10:08;5.60;1.00
2973;DHT22;1496;51.404;7.232;2024-02-26T03:12:34;5.60;1.00
2973;DHT22;1496;51.404;7.232;2024-02-26T03:15:00;5.60;1.00
2973;DHT22;1496;51.404;7.232;2024-02-26T03:17:30;5.50;1.00
2973;DHT22;1496;51.404;7.232;2024-02-26T03:19:55;5.50;1.00
2973;DHT22;1496;51.404;7.232;2024-02-26T03:22:21;5.40;1.00
2973;DHT22;1496;51.404;7.232;2024-02-26T03:24:47;5.40;1.00
2973;DHT22;1496;51.404;7.232;2024-02-26T03:27:13;5.30;1.00
2973;DHT22;1496;51.404;7.232;2024-02-26T03:29:40;5.30;1.00
2973;DHT22;1496;51.404;7.232;2024-02-26T03:32:06;5.20;1.00
2973;DHT22;1496;51.404;7.232;2024-02-26T03:34:32;5.10;1.00
2973;DHT22;1496;51.404;7.232;2024-02-26T03:37:00;5.00;1.00
2973;DHT22;1496;51.404;7.232;2024-02-26T03:39:26;5.00;1.00
2973;DHT22;1496;51.404;7.232;2024-02-26T03:41:52;4.90;1.00
2973;DHT22;1496;51.404;7.232;2024-02-26T03:44:18;4.90;1.00
2973;DHT22;1496;51.404;7.232;2024-02-26T03:46:43;4.80;1.00
2973;DHT22;1496;51.404;7.232;2024-02-26T03:49:09;4.90;1.00
2973;DHT22;1496;51.404;7.232;2024-02-26T03:51:35;4.80;1.00
2973;DHT22;1496;51.404;7.232;2024-02-26T03:54:01;4.70;1.00
2973;DHT22;1496;51.404;7.232;2024-02-26T03:56:27;4.70;1.00
2973;DHT22;1496;51.404;7.232;2024-02-26T03:58:53;4.80;1.00
2973;DHT22;1496;51.404;7.232;2024-02-26T04:01:19;4.80;1.00
2973;DHT22;1496;51.404;7.232;2024-02-26T04:03:45;4.80;1.00
2973;DHT22;1496;51.404;7.232;2024-02-26T04:06:11;4.80;1.00
2973;DHT22;1496;51.404;7.232;2024-02-26T04:08:40;4.80;1.00
2973;DHT22;1496;51.404;7.232;2024-02-26T04:11:05;4.80;1.00
2973;DHT22;1496;51.404;7.232;2024-02-26T04:13:34;4.80;1.00
2973;DHT22;1496;51.404;7.232;2024-02-26T04:16:00;4.80;1.00
2973;DHT22;1496;51.404;7.232;2024-02-26T04:18:27;4.70;1.00
2973;DHT22;1496;51.404;7.232;2024-02-26T04:20:53;4.80;1.00
2973;DHT22;1496;51.404;7.232;2024-02-26T04:23:19;4.80;1.00
2973;DHT22;1496;51.404;7.232;2024-02-26T04:25:45;4.80;1.00
2973;DHT22;1496;51.404;7.232;2024-02-26T04:28:10;4.80;1.00
2973;DHT22;1496;51.404;7.232;2024-02-26T04:30:36;4.80;1.00
2973;DHT22;1496;51.404;7.232;2024-02-26T04:33:02;4.70;1.00
2973;DHT22;1496;51.404;7.232;2024-02-26T04:35:28;4.70;1.00
2973;DHT22;1496;51.404;7.232;2024-02-26T04:37:53;4.70;1.00
2973;DHT22;1496;51.404;7.232;2024-02-26T04:40:19;4.60;1.00
2973;DHT22;1496;51.404;7.232;2024-02-26T04:42:45;4.60;1.00
2973;DHT22;1496;51.404;7.232;2024-02-26T04:45:10;4.60;1.00
2973;DHT22;1496;51.404;7.232;2024-02-26T04:47:36;4.60;1.00
2973;DHT22;1496;51.404;7.232;2024-02-26T04:50:02;4.60;1.00
2973;DHT22;1496;51.404;7.232;2024-02-26T04:52:28;4.60;1.00
2973;DHT22;1496;51.404;7.232;2024-02-26T04:54:53;4.60;1.00
2973;DHT22;1496;51.404;7.232;2024-02-26T04:57:20;4.60;1.00
2973;DHT22;1496;51.404;7.232;2024-02-26T04:59:46;4.70;1.00
2973;DHT22;1496;51.404;7.232;2024-02-26T05:02:12;4.70;1.00
2973;DHT22;1496;51.404;7.232;2024-02-26T05:04:38;4.70;1.00
2973;DHT22;1496;51.404;7.232;2024-02-26T05:07:03;4.70;1.00
2973;DHT22;1496;51.404;7.232;2024-02-26T05:09:29;4.70;4.60
2973;DHT22;1496;51.404;7.232;2024-02-26T05:11:55;4.60;4.70
2973;DHT22;1496;51.404;7.232;2024-02-26T05:14:21;4.60;10.50
2973;DHT22;1496;51.404;7.232;2024-02-26T05:16:47;4.50;21.30
2973;DHT22;1496;51.404;7.232;2024-02-26T05:19:13;4.50;42.80
2973;DHT22;1496;51.404;7.232;2024-02-26T05:21:38;4.50;82.30
2973;DHT22;1496;51.404;7.232;2024-02-26T05:24:06;4.40;99.90
2973;DHT22;1496;51.404;7.232;2024-02-26T05:26:31;4.40;99.90
2973;DHT22;1496;51.404;7.232;2024-02-26T05:28:57;4.30;99.90
2973;DHT22;1496;51.404;7.232;2024-02-26T05:31:26;4.30;99.90
2973;DHT22;1496;51.404;7.232;2024-02-26T05:33:52;4.30;99.90
2973;DHT22;1496;51.404;7.232;2024-02-26T05:36:21;4.30;99.90
2973;DHT22;1496;51.404;7.232;2024-02-26T05:38:48;4.30;99.90
2973;DHT22;1496;51.404;7.232;2024-02-26T05:41:17;4.30;99.90
2973;DHT22;1496;51.404;7.232;2024-02-26T05:43:49;4.30;99.90
2973;DHT22;1496;51.404;7.232;2024-02-26T05:46:19;4.30;99.90
2973;DHT22;1496;51.404;7.232;2024-02-26T05:48:53;4.30;99.90
2973;DHT22;1496;51.404;7.232;2024-02-26T05:51:18;4.20;99.90
2973;DHT22;1496;51.404;7.232;2024-02-26T05:53:44;4.20;1.00
2973;DHT22;1496;51.404;7.232;2024-02-26T05:56:10;4.30;1.00
2973;DHT22;1496;51.404;7.232;2024-02-26T05:58:35;4.30;1.00
2973;DHT22;1496;51.404;7.232;2024-02-26T06:01:01;4.30;1.00
2973;DHT22;1496;51.404;7.232;2024-02-26T06:03:27;4.30;1.00
2973;DHT22;1496;51.404;7.232;2024-02-26T06:05:53;4.30;1.00
2973;DHT22;1496;51.404;7.232;2024-02-26T06:08:19;4.30;1.00
2973;DHT22;1496;51.404;7.232;2024-02-26T06:10:44;4.30;1.00
2973;DHT22;1496;51.404;7.232;2024-02-26T06:13:11;4.20;1.00
2973;DHT22;1496;51.404;7.232;2024-02-26T06:15:36;4.20;1.00
2973;DHT22;1496;51.404;7.232;2024-02-26T06:18:02;4.30;1.00
2973;DHT22;1496;51.404;7.232;2024-02-26T06:20:28;4.30;1.00
2973;DHT22;1496;51.404;7.232;2024-02-26T06:22:54;4.30;1.00
2973;DHT22;1496;51.404;7.232;2024-02-26T06:25:19;4.30;1.00
2973;DHT22;1496;51.404;7.232;2024-02-26T06:27:45;4.30;1.00
2973;DHT22;1496;51.404;7.232;2024-02-26T06:30:11;4.30;1.00
2973;DHT22;1496;51.404;7.232;2024-02-26T06:32:40;4.30;1.00
2973;DHT22;1496;51.404;7.232;2024-02-26T06:35:06;4.30;1.00
2973;DHT22;1496;51.404;7.232;2024-02-26T06:37:33;4.30;1.00
2973;DHT22;1496;51.404;7.232;2024-02-26T06:39:59;4.30;1.00
2973;DHT22;1496;51.404;7.232;2024-02-26T06:42:25;4.30;1.00
2973;DHT22;1496;51.404;7.232;2024-02-26T06:44:51;4.30;1.00
2973;DHT22;1496;51.404;7.232;2024-02-26T06:47:16;4.40;1.00
2973;DHT22;1496;51.404;7.232;2024-02-26T06:49:42;4.50;1.00
2973;DHT22;1496;51.404;7.232;2024-02-26T06:52:09;4.40;1.00
2973;DHT22;1496;51.404;7.232;2024-02-26T06:54:34;4.50;1.00
2973;DHT22;1496;51.404;7.232;2024-02-26T06:57:00;4.50;1.00
2973;DHT22;1496;51.404;7.232;2024-02-26T06:59:26;4.60;1.00
2973;DHT22;1496;51.404;7.232;2024-02-26T07:01:51;4.50;1.00
2973;DHT22;1496;51.404;7.232;2024-02-26T07:04:17;4.40;1.00
2973;DHT22;1496;51.404;7.232;2024-02-26T07:06:43;4.40;1.00
2973;DHT22;1496;51.404;7.232;2024-02-26T07:09:09;4.30;16.10
2973;DHT22;1496;51.404;7.232;2024-02-26T07:11:35;4.30;99.90
2973;DHT22;1496;51.404;7.232;2024-02-26T07:14:00;4.40;99.90
2973;DHT22;1496;51.404;7.232;2024-02-26T07:16:26;4.40;65.90
2973;DHT22;1496;51.404;7.232;2024-02-26T07:18:52;4.40;28.50
2973;DHT22;1496;51.404;7.232;2024-02-26T07:21:18;4.50;99.90
2973;DHT22;1496;51.404;7.232;2024-02-26T07:23:43;4.60;99.90
2973;DHT22;1496;51.404;7.232;2024-02-26T07:26:09;5.00;99.90
2973;DHT22;1496;51.404;7.232;2024-02-26T07:28:37;5.60;1.00
2973;DHT22;1496;51.404;7.232;2024-02-26T07:31:03;5.20;99.90
2973;DHT22;1496;51.404;7.232;2024-02-26T07:33:29;5.00;99.90
2973;DHT22;1496;51.404;7.232;2024-02-26T07:35:54;4.90;99.90
2973;DHT22;1496;51.404;7.232;2024-02-26T07:38:20;4.80;99.90
2973;DHT22;1496;51.404;7.232;2024-02-26T07:40:46;4.70;99.90
2973;DHT22;1496;51.404;7.232;2024-02-26T07:43:12;4.70;99.90
2973;DHT22;1496;51.404;7.232;2024-02-26T07:45:37;4.70;99.90
2973;DHT22;1496;51.404;7.232;2024-02-26T07:48:03;4.80;1.00
2973;DHT22;1496;51.404;7.232;2024-02-26T07:50:29;4.90;1.00
2973;DHT22;1496;51.404;7.232;2024-02-26T07:52:55;4.90;1.00
2973;DHT22;1496;51.404;7.232;2024-02-26T07:55:20;4.90;1.00
2973;DHT22;1496;51.404;7.232;2024-02-26T07:57:47;5.00;1.00
2973;DHT22;1496;51.404;7.232;2024-02-26T08:00:13;5.00;1.00
2973;DHT22;1496;51.404;7.232;2024-02-26T08:02:42;4.90;1.00
2973;DHT22;1496;51.404;7.232;2024-02-26T08:05:08;4.90;1.00
2973;DHT22;1496;51.404;7.232;2024-02-26T08:07:34;4.90;1.00
2973;DHT22;1496;51.404;7.232;2024-02-26T08:10:00;4.90;1.00
2973;DHT22;1496;51.404;7.232;2024-02-26T08:12:25;4.80;1.00
2973;DHT22;1496;51.404;7.232;2024-02-26T08:14:51;4.80;43.50
2973;DHT22;1496;51.404;7.232;2024-02-26T08:17:17;4.80;99.90
2973;DHT22;1496;51.404;7.232;2024-02-26T08:19:42;4.70;99.90
2973;DHT22;1496;51.404;7.232;2024-02-26T08:22:08;4.70;1.00
2973;DHT22;1496;51.404;7.232;2024-02-26T08:24:35;4.80;1.00
2973;DHT22;1496;51.404;7.232;2024-02-26T08:27:01;4.80;1.00
2973;DHT22;1496;51.404;7.232;2024-02-26T08:29:27;4.80;99.90
2973;DHT22;1496;51.404;7.232;2024-02-26T08:31:53;4.70;1.00
2973;DHT22;1496;51.404;7.232;2024-02-26T08:34:19;4.80;99.90
2973;DHT22;1496;51.404;7.232;2024-02-26T08:36:44;4.80;99.90
2973;DHT22;1496;51.404;7.232;2024-02-26T08:39:10;4.80;99.90
2973;DHT22;1496;51.404;7.232;2024-02-26T08:41:36;4.80;99.90
2973;DHT22;1496;51.404;7.232;2024-02-26T08:44:01;4.80;99.90
2973;DHT22;1496;51.404;7.232;2024-02-26T08:46:27;4.80;99.90
2973;DHT22;1496;51.404;7.232;2024-02-26T08:48:53;4.80;99.90
2973;DHT22;1496;51.404;7.232;2024-02-26T08:51:18;4.80;99.90
2973;DHT22;1496;51.404;7.232;2024-02-26T08:53:44;4.80;99.90
2973;DHT22;1496;51.404;7.232;2024-02-26T08:56:10;4.90;99.90
2973;DHT22;1496;51.404;7.232;2024-02-26T08:58:42;4.80;99.90
2973;DHT22;1496;51.404;7.232;2024-02-26T09:01:08;4.90;99.90
2973;DHT22;1496;51.404;7.232;2024-02-26T09:03:34;4.90;99.90
2973;DHT22;1496;51.404;7.232;2024-02-26T09:06:00;4.90;99.90
2973;DHT22;1496;51.404;7.232;2024-02-26T09:08:25;4.80;99.90
2973;DHT22;1496;51.404;7.232;2024-02-26T09:10:52;4.70;99.90
2973;DHT22;1496;51.404;7.232;2024-02-26T09:13:18;4.80;99.90
2973;DHT22;1496;51.404;7.232;2024-02-26T09:15:44;4.70;99.90
2973;DHT22;1496;51.404;7.232;2024-02-26T09:18:10;4.70;99.90
2973;DHT22;1496;51.404;7.232;2024-02-26T09:20:36;4.70;99.90
2973;DHT22;1496;51.404;7.232;2024-02-26T09:23:01;4.80;99.90
2973;DHT22;1496;51.404;7.232;2024-02-26T09:25:28;4.80;99.90
2973;DHT22;1496;51.404;7.232;2024-02-26T09:27:53;4.80;99.90
2973;DHT22;1496;51.404;7.232;2024-02-26T09:30:20;4.80;99.90
2973;DHT22;1496;51.404;7.232;2024-02-26T09:32:48;4.80;99.90
2973;DHT22;1496;51.404;7.232;2024-02-26T09:35:14;4.80;99.90
2973;DHT22;1496;51.404;7.232;2024-02-26T09:37:39;4.80;99.90
2973;DHT22;1496;51.404;7.232;2024-02-26T09:40:05;4.80;99.90
2973;DHT22;1496;51.404;7.232;2024-02-26T09:42:35;4.80;99.90
2973;DHT22;1496;51.404;7.232;2024-02-26T09:45:05;4.90;99.90
2973;DHT22;1496;51.404;7.232;2024-02-26T09:47:36;4.90;99.90
2973;DHT22;1496;51.404;7.232;2024-02-26T09:50:03;5.00;99.90
2973;DHT22;1496;51.404;7.232;2024-02-26T09:52:31;5.00;99.90
2973;DHT22;1496;51.404;7.232;2024-02-26T09:54:59;5.00;99.90
2973;DHT22;1496;51.404;7.232;2024-02-26T09:57:25;5.10;99.90
2973;DHT22;1496;51.404;7.232;2024-02-26T09:59:53;5.10;99.90
2973;DHT22;1496;51.404;7.232;2024-02-26T10:02:21;5.20;99.90
2973;DHT22;1496;51.404;7.232;2024-02-26T10:04:47;5.20;99.90
2973;DHT22;1496;51.404;7.232;2024-02-26T10:07:16;5.20;99.90
2973;DHT22;1496;51.404;7.232;2024-02-26T10:09:42;5.30;99.90
2973;DHT22;1496;51.404;7.232;2024-02-26T10:12:10;5.40;99.90
2973;DHT22;1496;51.404;7.232;2024-02-26T10:14:37;5.50;99.90
2973;DHT22;1496;51.404;7.232;2024-02-26T10:17:03;5.40;99.90
2973;DHT22;1496;51.404;7.232;2024-02-26T10:19:32;5.40;99.90
2973;DHT22;1496;51.404;7.232;2024-02-26T10:21:59;5.40;99.90
2973;DHT22;1496;51.404;7.232;2024-02-26T10:24:29;5.30;99.90
2973;DHT22;1496;51.404;7.232;2024-02-26T10:26:56;5.20;99.90
2973;DHT22;1496;51.404;7.232;2024-02-26T10:29:24;5.20;99.90
2973;DHT22;1496;51.404;7.232;2024-02-26T10:31:51;5.30;99.90
2973;DHT22;1496;51.404;7.232;2024-02-26T10:34:17;5.30;99.90
2973;DHT22;1496;51.404;7.232;2024-02-26T10:36:43;5.20;99.90
2973;DHT22;1496;51.404;7.232;2024-02-26T10:39:11;5.30;99.90
2973;DHT22;1496;51.404;7.232;2024-02-26T10:41:37;5.30;99.90
2973;DHT22;1496;51.404;7.232;2024-02-26T10:44:04;5.30;99.90
2973;DHT22;1496;51.404;7.232;2024-02-26T10:46:30;5.30;99.90
2973;DHT22;1496;51.404;7.232;2024-02-26T10:48:56;5.30;99.90
2973;DHT22;1496;51.404;7.232;2024-02-26T10:51:29;5.30;99.90
2973;DHT22;1496;51.404;7.232;2024-02-26T10:53:56;5.40;99.90
2973;DHT22;1496;51.404;7.232;2024-02-26T10:56:29;5.40;99.90
2973;DHT22;1496;51.404;7.232;2024-02-26T10:58:58;5.40;99.90
2973;DHT22;1496;51.404;7.232;2024-02-26T11:01:24;5.60;99.90
2973;DHT22;1496;51.404;7.232;2024-02-26T11:03:55;5.60;99.90
2973;DHT22;1496;51.404;7.232;2024-02-26T11:06:22;5.60;99.90
2973;DHT22;1496;51.404;7.232;2024-02-26T11:08:51;5.60;99.90
2973;DHT22;1496;51.404;7.232;2024-02-26T11:11:18;5.60;99.90
2973;DHT22;1496;51.404;7.232;2024-02-26T11:13:47;5.60;99.90
2973;DHT22;1496;51.404;7.232;2024-02-26T11:16:21;5.60;99.90
2973;DHT22;1496;51.404;7.232;2024-02-26T11:18:48;5.70;99.90
2973;DHT22;1496;51.404;7.232;2024-02-26T11:21:17;5.70;99.90
2973;DHT22;1496;51.404;7.232;2024-02-26T11:23:53;5.80;99.90
2973;DHT22;1496;51.404;7.232;2024-02-26T11:26:20;5.70;99.90
2973;DHT22;1496;51.404;7.232;2024-02-26T11:28:47;5.80;99.90
2973;DHT22;1496;51.404;7.232;2024-02-26T11:31:13;5.80;99.90
2973;DHT22;1496;51.404;7.232;2024-02-26T11:33:40;5.90;99.90
2973;DHT22;1496;51.404;7.232;2024-02-26T11:36:11;6.00;99.90
2973;DHT22;1496;51.404;7.232;2024-02-26T11:38:37;6.00;99.90
2973;DHT22;1496;51.404;7.232;2024-02-26T11:41:04;6.00;99.90
2973;DHT22;1496;51.404;7.232;2024-02-26T11:46:31;6.20;99.90
2973;DHT22;1496;51.404;7.232;2024-02-26T11:51:50;6.40;99.90
2973;DHT22;1496;51.404;7.232;2024-02-26T11:54:43;6.40;99.90
2973;DHT22;1496;51.404;7.232;2024-02-26T11:57:37;6.40;99.90
2973;DHT22;1496;51.404;7.232;2024-02-26T12:05:16;6.60;99.90
2973;DHT22;1496;51.404;7.232;2024-02-26T12:07:49;6.60;99.90
2973;DHT22;1496;51.404;7.232;2024-02-26T12:10:28;6.50;1.00
2973;DHT22;1496;51.404;7.232;2024-02-26T12:13:00;6.50;1.00
2973;DHT22;1496;51.404;7.232;2024-02-26T12:15:36;6.50;1.00
2973;DHT22;1496;51.404;7.232;2024-02-26T12:18:05;6.40;1.00
2973;DHT22;1496;51.404;7.232;2024-02-26T12:20:31;6.40;1.00
2973;DHT22;1496;51.404;7.232;2024-02-26T12:22:57;6.40;1.00
2973;DHT22;1496;51.404;7.232;2024-02-26T12:25:25;6.50;1.00
2973;DHT22;1496;51.404;7.232;2024-02-26T12:27:55;6.60;99.90
2973;DHT22;1496;51.404;7.232;2024-02-26T12:30:21;6.60;42.90
2973;DHT22;1496;51.404;7.232;2024-02-26T12:32:48;6.70;1.00
2973;DHT22;1496;51.404;7.232;2024-02-26T12:35:15;6.70;1.00
2973;DHT22;1496;51.404;7.232;2024-02-26T12:37:42;6.60;99.90
2973;DHT22;1496;51.404;7.232;2024-02-26T12:40:09;6.60;99.90
2973;DHT22;1496;51.404;7.232;2024-02-26T12:42:36;6.60;99.90
2973;DHT22;1496;51.404;7.232;2024-02-26T12:45:06;6.50;99.90
2973;DHT22;1496;51.404;7.232;2024-02-26T12:47:44;6.50;99.90
2973;DHT22;1496;51.404;7.232;2024-02-26T12:50:11;6.40;99.90
2973;DHT22;1496;51.404;7.232;2024-02-26T12:52:41;6.50;99.90
2973;DHT22;1496;51.404;7.232;2024-02-26T12:55:08;6.40;99.90
2973;DHT22;1496;51.404;7.232;2024-02-26T12:57:37;6.40;99.90
2973;DHT22;1496;51.404;7.232;2024-02-26T13:00:05;6.40;99.90
2973;DHT22;1496;51.404;7.232;2024-02-26T13:02:32;6.40;99.50
2973;DHT22;1496;51.404;7.232;2024-02-26T13:04:59;6.50;99.90
2973;DHT22;1496;51.404;7.232;2024-02-26T13:07:27;6.50;99.90
2973;DHT22;1496;51.404;7.232;2024-02-26T13:09:53;6.50;92.30
2973;DHT22;1496;51.404;7.232;2024-02-26T13:12:19;6.60;91.00
2973;DHT22;1496;51.404;7.232;2024-02-26T13:14:45;6.70;96.60
2973;DHT22;1496;51.404;7.232;2024-02-26T13:17:11;6.70;56.50
2973;DHT22;1496;51.404;7.232;2024-02-26T13:19:36;6.80;56.60
2973;DHT22;1496;51.404;7.232;2024-02-26T13:22:06;6.80;25.30
2973;DHT22;1496;51.404;7.232;2024-02-26T13:24:33;6.90;28.40
2973;DHT22;1496;51.404;7.232;2024-02-26T13:26:59;6.90;22.70
2973;DHT22;1496;51.404;7.232;2024-02-26T13:29:24;6.90;14.70
2973;DHT22;1496;51.404;7.232;2024-02-26T13:31:58;7.00;12.40
2973;DHT22;1496;51.404;7.232;2024-02-26T13:34:28;6.90;5.50
2973;DHT22;1496;51.404;7.232;2024-02-26T13:36:56;7.00;2.30
2973;DHT22;1496;51.404;7.232;2024-02-26T13:39:23;6.90;1.00
2973;DHT22;1496;51.404;7.232;2024-02-26T13:41:50;7.00;1.00
2973;DHT22;1496;51.404;7.232;2024-02-26T13:44:16;7.00;1.00
2973;DHT22;1496;51.404;7.232;2024-02-26T13:46:42;7.00;1.00
2973;DHT22;1496;51.404;7.232;2024-02-26T13:49:09;7.00;1.00
2973;DHT22;1496;51.404;7.232;2024-02-26T13:51:35;7.00;1.00
2973;DHT22;1496;51.404;7.232;2024-02-26T13:54:04;7.00;1.00
2973;DHT22;1496;51.404;7.232;2024-02-26T13:56:31;6.90;1.00
2973;DHT22;1496;51.404;7.232;2024-02-26T13:58:57;6.90;1.00
2973;DHT22;1496;51.404;7.232;2024-02-26T14:01:24;7.00;1.00
2973;DHT22;1496;51.404;7.232;2024-02-26T14:03:49;6.90;1.00
2973;DHT22;1496;51.404;7.232;2024-02-26T14:06:15;6.90;1.00
2973;DHT22;1496;51.404;7.232;2024-02-26T14:08:41;6.90;1.00
2973;DHT22;1496;51.404;7.232;2024-02-26T14:11:07;6.90;1.00
2973;DHT22;1496;51.404;7.232;2024-02-26T14:13:33;7.00;1.00
2973;DHT22;1496;51.404;7.232;2024-02-26T14:15:58;6.90;1.00
2973;DHT22;1496;51.404;7.232;2024-02-26T14:18:24;7.10;1.00
2973;DHT22;1496;51.404;7.232;2024-02-26T14:20:50;7.10;1.00
2973;DHT22;1496;51.404;7.232;2024-02-26T14:23:17;7.00;1.00
2973;DHT22;1496;51.404;7.232;2024-02-26T14:25:42;7.10;1.00
2973;DHT22;1496;51.404;7.232;2024-02-26T14:28:08;7.10;1.00
2973;DHT22;1496;51.404;7.232;2024-02-26T14:30:34;7.10;1.00
2973;DHT22;1496;51.404;7.232;2024-02-26T14:33:00;7.10;1.00
2973;DHT22;1496;51.404;7.232;2024-02-26T14:35:26;7.10;1.00
2973;DHT22;1496;51.404;7.232;2024-02-26T14:37:52;7.10;1.00
2973;DHT22;1496;51.404;7.232;2024-02-26T14:40:18;7.20;1.00
2973;DHT22;1496;51.404;7.232;2024-02-26T14:42:44;7.20;1.00
2973;DHT22;1496;51.404;7.232;2024-02-26T14:45:10;7.20;1.00
2973;DHT22;1496;51.404;7.232;2024-02-26T14:47:36;7.20;1.00
2973;DHT22;1496;51.404;7.232;2024-02-26T14:50:02;7.20;1.00
2973;DHT22;1496;51.404;7.232;2024-02-26T14:52:28;7.20;1.00
2973;DHT22;1496;51.404;7.232;2024-02-26T14:54:54;7.30;1.00
2973;DHT22;1496;51.404;7.232;2024-02-26T14:57:20;7.20;1.00
2973;DHT22;1496;51.404;7.232;2024-02-26T14:59:45;7.20;1.00
2973;DHT22;1496;51.404;7.232;2024-02-26T15:02:11;7.20;1.00
2973;DHT22;1496;51.404;7.232;2024-02-26T15:04:37;7.30;1.00
2973;DHT22;1496;51.404;7.232;2024-02-26T15:07:03;7.30;1.00
2973;DHT22;1496;51.404;7.232;2024-02-26T15:09:29;7.20;1.00
2973;DHT22;1496;51.404;7.232;2024-02-26T15:11:54;7.20;1.00
2973;DHT22;1496;51.404;7.232;2024-02-26T15:14:24;7.20;1.00
2973;DHT22;1496;51.404;7.232;2024-02-26T15:16:54;7.20;1.00
2973;DHT22;1496;51.404;7.232;2024-02-26T15:19:20;7.20;1.00
2973;DHT22;1496;51.404;7.232;2024-02-26T15:21:46;7.20;1.00
2973;DHT22;1496;51.404;7.232;2024-02-26T15:24:12;7.20;1.00
2973;DHT22;1496;51.404;7.232;2024-02-26T15:26:38;7.10;1.00
2973;DHT22;1496;51.404;7.232;2024-02-26T15:29:06;7.10;1.00
2973;DHT22;1496;51.404;7.232;2024-02-26T15:31:31;7.20;1.00
2973;DHT22;1496;51.404;7.232;2024-02-26T15:33:57;7.10;1.00
2973;DHT22;1496;51.404;7.232;2024-02-26T15:36:23;7.10;1.00
2973;DHT22;1496;51.404;7.232;2024-02-26T15:38:49;7.10;1.00
2973;DHT22;1496;51.404;7.232;2024-02-26T15:41:15;7.10;1.00
2973;DHT22;1496;51.404;7.232;2024-02-26T15:43:42;7.00;1.00
2973;DHT22;1496;51.404;7.232;2024-02-26T15:46:08;7.00;1.00
2973;DHT22;1496;51.404;7.232;2024-02-26T15:48:35;7.00;1.00
2973;DHT22;1496;51.404;7.232;2024-02-26T15:51:01;7.00;1.00
2973;DHT22;1496;51.404;7.232;2024-02-26T15:53:27;7.00;1.00
2973;DHT22;1496;51.404;7.232;2024-02-26T15:55:52;6.90;1.00
2973;DHT22;1496;51.404;7.232;2024-02-26T15:58:18;6.90;1.00
2973;DHT22;1496;51.404;7.232;2024-02-26T16:00:44;7.00;1.00
2973;DHT22;1496;51.404;7.232;2024-02-26T16:03:10;6.90;1.00
2973;DHT22;1496;51.404;7.232;2024-02-26T16:05:37;6.90;1.00
2973;DHT22;1496;51.404;7.232;2024-02-26T16:08:17;6.90;1.00
2973;DHT22;1496;51.404;7.232;2024-02-26T16:10:46;6.90;1.00
2973;DHT22;1496;51.404;7.232;2024-02-26T16:13:12;6.90;1.00
2973;DHT22;1496;51.404;7.232;2024-02-26T16:15:44;6.90;1.00
2973;DHT22;1496;51.404;7.232;2024-02-26T16:18:10;6.90;1.00
2973;DHT22;1496;51.404;7.232;2024-02-26T16:20:36;6.90;1.00
2973;DHT22;1496;51.404;7.232;2024-02-26T16:23:01;6.90;1.00
2973;DHT22;1496;51.404;7.232;2024-02-26T16:25:31;6.90;1.00
2973;DHT22;1496;51.404;7.232;2024-02-26T16:27:57;6.80;1.00
2973;DHT22;1496;51.404;7.232;2024-02-26T16:30:23;6.80;1.00
2973;DHT22;1496;51.404;7.232;2024-02-26T16:32:48;6.90;1.00
2973;DHT22;1496;51.404;7.232;2024-02-26T16:35:14;6.80;1.00
2973;DHT22;1496;51.404;7.232;2024-02-26T16:37:40;6.80;1.00